sensor_id;sensor_type;location;lat;lon;timestamp;pressure;altitude;pressure_sealevel;temperature;humidity
80323;BME280;69636;52.372;13.610;2023-12-22T00:00:00;98281.78;;;4.34;89.01
80323;BME280;69636;52.372;13.610;2023-12-22T00:02:28;98277.84;;;4.30;90.82
80323;BME280;69636;52.372;13.610;2023-12-22T00:04:55;98291.03;;;4.22;90.68
80323;BME280;69636;52.372;13.610;2023-12-22T00:07:24;98300.41;;;4.16;90.00
80323;BME280;69636;52.372;13.610;2023-12-22T00:09:51;98290.47;;;4.03;91.34
80323;BME280;69636;52.372;13.610;2023-12-22T00:12:18;98303.94;;;4.00;91.41
80323;BME280;69636;52.372;13.610;2023-12-22T00:14:46;98309.03;;;3.94;91.88
80323;BME280;69636;52.372;13.610;2023-12-22T00:17:13;98309.28;;;3.84;91.48
80323;BME280;69636;52.372;13.610;2023-12-22T00:19:40;98294.38;;;3.77;91.63
80323;BME280;69636;52.372;13.610;2023-12-22T00:22:08;98308.63;;;3.82;91.23
80323;BME280;69636;52.372;13.610;2023-12-22T00:24:36;98303.88;;;3.78;90.88
80323;BME280;69636;52.372;13.610;2023-12-22T00:27:04;98313.56;;;3.77;89.70
80323;BME280;69636;52.372;13.610;2023-12-22T00:29:31;98334.88;;;3.74;90.15
80323;BME280;69636;52.372;13.610;2023-12-22T00:31:59;98322.41;;;3.76;88.81
80323;BME280;69636;52.372;13.610;2023-12-22T00:34:26;98338.16;;;3.76;89.40
80323;BME280;69636;52.372;13.610;2023-12-22T00:36:53;98333.91;;;3.67;88.99
80323;BME280;69636;52.372;13.610;2023-12-22T00:39:20;98347.84;;;3.67;89.12
80323;BME280;69636;52.372;13.610;2023-12-22T00:41:49;98355.06;;;3.73;88.00
80323;BME280;69636;52.372;13.610;2023-12-22T00:44:16;98354.69;;;3.85;87.09
80323;BME280;69636;52.372;13.610;2023-12-22T00:46:43;98346.34;;;3.81;87.13
80323;BME280;69636;52.372;13.610;2023-12-22T00:49:10;98357.66;;;3.82;87.48
80323;BME280;69636;52.372;13.610;2023-12-22T00:51:38;98363.22;;;3.87;86.41
80323;BME280;69636;52.372;13.610;2023-12-22T00:54:05;98352.25;;;3.83;87.93
80323;BME280;69636;52.372;13.610;2023-12-22T00:56:32;98354.53;;;3.86;88.78
80323;BME280;69636;52.372;13.610;2023-12-22T00:59:01;98373.88;;;3.85;88.79
80323;BME280;69636;52.372;13.610;2023-12-22T01:01:38;98358.97;;;3.86;89.48
80323;BME280;69636;52.372;13.610;2023-12-22T01:04:06;98367.16;;;3.83;91.73
80323;BME280;69636;52.372;13.610;2023-12-22T01:06:37;98370.63;;;3.83;91.83
80323;BME280;69636;52.372;13.610;2023-12-22T01:09:44;98387.03;;;3.77;92.83
80323;BME280;69636;52.372;13.610;2023-12-22T01:12:11;98383.09;;;3.65;94.98
80323;BME280;69636;52.372;13.610;2023-12-22T01:14:40;98386.91;;;3.62;94.71
80323;BME280;69636;52.372;13.610;2023-12-22T01:17:07;98401.16;;;3.60;95.83
80323;BME280;69636;52.372;13.610;2023-12-22T01:19:35;98395.94;;;3.52;96.64
80323;BME280;69636;52.372;13.610;2023-12-22T01:22:02;98405.59;;;3.51;96.33
80323;BME280;69636;52.372;13.610;2023-12-22T01:24:32;98392.00;;;3.48;96.66
80323;BME280;69636;52.372;13.610;2023-12-22T01:27:00;98408.38;;;3.50;96.24
80323;BME280;69636;52.372;13.610;2023-12-22T01:29:27;98414.63;;;3.49;97.99
80323;BME280;69636;52.372;13.610;2023-12-22T01:32:19;98414.94;;;3.54;97.66
80323;BME280;69636;52.372;13.610;2023-12-22T01:35:18;98418.72;;;3.51;97.35
80323;BME280;69636;52.372;13.610;2023-12-22T01:37:46;98419.22;;;3.55;97.92
80323;BME280;69636;52.372;13.610;2023-12-22T01:40:13;98410.84;;;3.59;97.63
80323;BME280;69636;52.372;13.610;2023-12-22T01:42:41;98423.31;;;3.57;97.33
80323;BME280;69636;52.372;13.610;2023-12-22T01:45:09;98425.28;;;3.55;98.18
80323;BME280;69636;52.372;13.610;2023-12-22T01:47:37;98435.94;;;3.54;97.83
80323;BME280;69636;52.372;13.610;2023-12-22T01:50:06;98436.59;;;3.56;97.76
80323;BME280;69636;52.372;13.610;2023-12-22T01:52:36;98442.81;;;3.55;98.15
80323;BME280;69636;52.372;13.610;2023-12-22T01:55:11;98442.81;;;3.55;98.22
80323;BME280;69636;52.372;13.610;2023-12-22T01:57:40;98453.63;;;3.60;98.11
80323;BME280;69636;52.372;13.610;2023-12-22T02:00:09;98446.91;;;3.49;99.21
80323;BME280;69636;52.372;13.610;2023-12-22T02:02:38;98440.34;;;3.45;98.60
80323;BME280;69636;52.372;13.610;2023-12-22T02:05:06;98439.53;;;3.45;98.48
80323;BME280;69636;52.372;13.610;2023-12-22T02:07:34;98448.88;;;3.47;98.64
80323;BME280;69636;52.372;13.610;2023-12-22T02:10:01;98453.97;;;3.49;98.70
80323;BME280;69636;52.372;13.610;2023-12-22T02:12:29;98456.41;;;3.50;97.89
80323;BME280;69636;52.372;13.610;2023-12-22T02:14:56;98447.72;;;3.50;98.05
80323;BME280;69636;52.372;13.610;2023-12-22T02:17:26;98459.69;;;3.52;97.66
80323;BME280;69636;52.372;13.610;2023-12-22T02:19:58;98446.09;;;3.49;98.45
80323;BME280;69636;52.372;13.610;2023-12-22T02:22:29;98446.75;;;3.51;98.87
80323;BME280;69636;52.372;13.610;2023-12-22T02:24:56;98456.25;;;3.52;98.58
80323;BME280;69636;52.372;13.610;2023-12-22T02:27:28;98463.13;;;3.53;99.11
80323;BME280;69636;52.372;13.610;2023-12-22T02:30:05;98458.56;;;3.55;99.08
80323;BME280;69636;52.372;13.610;2023-12-22T02:32:37;98458.72;;;3.61;98.49
80323;BME280;69636;52.372;13.610;2023-12-22T02:35:09;98470.66;;;3.64;99.30
80323;BME280;69636;52.372;13.610;2023-12-22T02:37:39;98476.06;;;3.70;98.52
80323;BME280;69636;52.372;13.610;2023-12-22T02:40:07;98460.19;;;3.56;98.76
80323;BME280;69636;52.372;13.610;2023-12-22T02:42:36;98473.00;;;3.59;98.18
80323;BME280;69636;52.372;13.610;2023-12-22T02:45:06;98484.47;;;3.58;98.36
80323;BME280;69636;52.372;13.610;2023-12-22T02:47:33;98480.19;;;3.49;97.74
80323;BME280;69636;52.372;13.610;2023-12-22T02:50:00;98465.09;;;3.51;98.58
80323;BME280;69636;52.372;13.610;2023-12-22T02:52:28;98463.13;;;3.45;98.25
80323;BME280;69636;52.372;13.610;2023-12-22T02:54:57;98456.56;;;3.40;98.51
80323;BME280;69636;52.372;13.610;2023-12-22T02:57:24;98465.59;;;3.46;98.85
80323;BME280;69636;52.372;13.610;2023-12-22T02:59:51;98465.09;;;3.42;98.59
80323;BME280;69636;52.372;13.610;2023-12-22T03:02:18;98465.75;;;3.45;99.09
80323;BME280;69636;52.372;13.610;2023-12-22T03:04:46;98463.28;;;3.43;98.57
80323;BME280;69636;52.372;13.610;2023-12-22T03:07:13;98463.47;;;3.41;98.69
80323;BME280;69636;52.372;13.610;2023-12-22T03:09:42;98462.81;;;3.39;99.60
80323;BME280;69636;52.372;13.610;2023-12-22T03:12:10;98465.59;;;3.38;98.73
80323;BME280;69636;52.372;13.610;2023-12-22T03:14:38;98458.53;;;3.38;98.49
80323;BME280;69636;52.372;13.610;2023-12-22T03:17:11;98465.44;;;3.31;98.80
80323;BME280;69636;52.372;13.610;2023-12-22T03:19:39;98453.31;;;3.30;99.34
80323;BME280;69636;52.372;13.610;2023-12-22T03:22:06;98457.91;;;3.36;99.35
80323;BME280;69636;52.372;13.610;2023-12-22T03:24:33;98465.13;;;3.34;98.93
80323;BME280;69636;52.372;13.610;2023-12-22T03:27:01;98465.75;;;3.28;99.16
80323;BME280;69636;52.372;13.610;2023-12-22T03:29:29;98466.75;;;3.27;99.28
80323;BME280;69636;52.372;13.610;2023-12-22T03:31:56;98468.56;;;3.35;100.00
80323;BME280;69636;52.372;13.610;2023-12-22T03:34:23;98468.22;;;3.30;99.58
80323;BME280;69636;52.372;13.610;2023-12-22T03:36:50;98458.22;;;3.25;100.00
80323;BME280;69636;52.372;13.610;2023-12-22T03:39:18;98461.16;;;3.22;100.00
80323;BME280;69636;52.372;13.610;2023-12-22T03:41:45;98452.97;;;3.17;100.00
80323;BME280;69636;52.372;13.610;2023-12-22T03:44:12;98440.69;;;3.10;100.00
80323;BME280;69636;52.372;13.610;2023-12-22T03:46:41;98434.09;;;3.14;100.00
80323;BME280;69636;52.372;13.610;2023-12-22T03:49:08;98444.75;;;3.12;100.00
80323;BME280;69636;52.372;13.610;2023-12-22T03:51:36;98436.72;;;3.14;100.00
80323;BME280;69636;52.372;13.610;2023-12-22T03:54:03;98438.38;;;3.15;100.00
80323;BME280;69636;52.372;13.610;2023-12-22T03:56:30;98423.13;;;3.18;100.00
80323;BME280;69636;52.372;13.610;2023-12-22T03:58:58;98445.91;;;3.18;100.00
80323;BME280;69636;52.372;13.610;2023-12-22T04:01:25;98441.50;;;3.26;99.33
80323;BME280;69636;52.372;13.610;2023-12-22T04:03:54;98458.22;;;3.33;99.32
80323;BME280;69636;52.372;13.610;2023-12-22T04:06:21;98456.94;;;3.37;99.04
80323;BME280;69636;52.372;13.610;2023-12-22T04:08:48;98474.78;;;3.42;98.65
80323;BME280;69636;52.372;13.610;2023-12-22T04:11:15;98452.00;;;3.42;99.79
80323;BME280;69636;52.372;13.610;2023-12-22T04:13:43;98459.53;;;3.46;99.91
80323;BME280;69636;52.372;13.610;2023-12-22T04:16:10;98466.41;;;3.47;98.86
80323;BME280;69636;52.372;13.610;2023-12-22T04:18:37;98463.97;;;3.37;100.00
80323;BME280;69636;52.372;13.610;2023-12-22T04:21:06;98454.47;;;3.36;99.99
80323;BME280;69636;52.372;13.610;2023-12-22T04:23:33;98464.78;;;3.37;100.00
80323;BME280;69636;52.372;13.610;2023-12-22T04:26:01;98468.72;;;3.33;100.00
80323;BME280;69636;52.372;13.610;2023-12-22T04:28:28;98466.06;;;3.17;100.00
80323;BME280;69636;52.372;13.610;2023-12-22T04:30:55;98476.84;;;2.98;100.00
80323;BME280;69636;52.372;13.610;2023-12-22T04:33:23;98477.50;;;2.92;100.00
80323;BME280;69636;52.372;13.610;2023-12-22T04:35:50;98472.94;;;3.02;100.00
80323;BME280;69636;52.372;13.610;2023-12-22T04:38:19;98474.25;;;2.98;100.00
80323;BME280;69636;52.372;13.610;2023-12-22T04:40:46;98468.00;;;2.91;100.00
80323;BME280;69636;52.372;13.610;2023-12-22T04:43:13;98463.72;;;2.82;100.00
80323;BME280;69636;52.372;13.610;2023-12-22T04:45:40;98475.97;;;2.73;100.00
80323;BME280;69636;52.372;13.610;2023-12-22T04:48:07;98462.41;;;2.78;100.00
80323;BME280;69636;52.372;13.610;2023-12-22T04:50:35;98466.47;;;2.72;100.00
80323;BME280;69636;52.372;13.610;2023-12-22T04:53:02;98459.44;;;2.72;100.00
80323;BME280;69636;52.372;13.610;2023-12-22T04:55:31;98447.81;;;2.75;100.00
80323;BME280;69636;52.372;13.610;2023-12-22T04:57:58;98449.78;;;2.73;100.00
80323;BME280;69636;52.372;13.610;2023-12-22T05:00:25;98451.94;;;2.78;100.00
80323;BME280;69636;52.372;13.610;2023-12-22T05:02:52;98471.88;;;2.70;100.00
80323;BME280;69636;52.372;13.610;2023-12-22T05:05:20;98465.94;;;2.60;100.00
80323;BME280;69636;52.372;13.610;2023-12-22T05:07:47;98481.63;;;2.52;100.00
80323;BME280;69636;52.372;13.610;2023-12-22T05:10:15;98488.22;;;2.56;100.00
80323;BME280;69636;52.372;13.610;2023-12-22T05:12:43;98499.56;;;2.39;100.00
80323;BME280;69636;52.372;13.610;2023-12-22T05:15:10;98506.78;;;2.11;100.00
80323;BME280;69636;52.372;13.610;2023-12-22T05:17:37;98497.25;;;1.76;100.00
80323;BME280;69636;52.372;13.610;2023-12-22T05:20:06;98499.06;;;1.58;100.00
80323;BME280;69636;52.372;13.610;2023-12-22T05:22:33;98478.25;;;1.48;100.00
80323;BME280;69636;52.372;13.610;2023-12-22T05:25:04;98480.09;;;1.56;100.00
80323;BME280;69636;52.372;13.610;2023-12-22T05:27:31;98476.16;;;1.52;100.00
80323;BME280;69636;52.372;13.610;2023-12-22T05:30:01;98473.00;;;1.48;100.00
80323;BME280;69636;52.372;13.610;2023-12-22T05:32:28;98459.50;;;1.53;100.00
80323;BME280;69636;52.372;13.610;2023-12-22T05:34:55;98472.59;;;1.61;100.00
80323;BME280;69636;52.372;13.610;2023-12-22T05:37:23;98480.53;;;1.69;100.00
80323;BME280;69636;52.372;13.610;2023-12-22T05:39:50;98477.44;;;1.74;100.00
80323;BME280;69636;52.372;13.610;2023-12-22T05:42:17;98478.56;;;1.71;100.00
80323;BME280;69636;52.372;13.610;2023-12-22T05:44:45;98482.16;;;1.70;100.00
80323;BME280;69636;52.372;13.610;2023-12-22T05:47:13;98484.41;;;1.65;100.00
80323;BME280;69636;52.372;13.610;2023-12-22T05:49:41;98486.72;;;1.68;100.00
80323;BME280;69636;52.372;13.610;2023-12-22T05:52:08;98472.31;;;1.64;100.00
80323;BME280;69636;52.372;13.610;2023-12-22T05:54:37;98469.00;;;1.62;100.00
80323;BME280;69636;52.372;13.610;2023-12-22T05:57:24;98468.03;;;1.63;100.00
80323;BME280;69636;52.372;13.610;2023-12-22T06:00:06;98468.03;;;1.63;100.00
80323;BME280;69636;52.372;13.610;2023-12-22T06:02:35;98482.75;;;1.64;100.00
80323;BME280;69636;52.372;13.610;2023-12-22T06:05:02;98471.47;;;1.63;100.00
80323;BME280;69636;52.372;13.610;2023-12-22T06:07:29;98486.41;;;1.71;100.00
80323;BME280;69636;52.372;13.610;2023-12-22T06:09:57;98493.03;;;1.83;100.00
80323;BME280;69636;52.372;13.610;2023-12-22T06:12:24;98486.81;;;1.84;100.00
80323;BME280;69636;52.372;13.610;2023-12-22T06:15:12;98486.81;;;1.84;100.00
80323;BME280;69636;52.372;13.610;2023-12-22T06:17:41;98468.22;;;1.87;100.00
80323;BME280;69636;52.372;13.610;2023-12-22T06:20:09;98480.53;;;1.95;100.00
80323;BME280;69636;52.372;13.610;2023-12-22T06:22:36;98499.72;;;2.03;100.00
80323;BME280;69636;52.372;13.610;2023-12-22T06:25:05;98495.50;;;2.11;100.00
80323;BME280;69636;52.372;13.610;2023-12-22T06:27:32;98496.53;;;2.18;100.00
80323;BME280;69636;52.372;13.610;2023-12-22T06:29:59;98482.47;;;2.19;100.00
80323;BME280;69636;52.372;13.610;2023-12-22T06:32:27;98488.50;;;2.19;100.00
80323;BME280;69636;52.372;13.610;2023-12-22T06:34:55;98483.28;;;2.19;100.00
80323;BME280;69636;52.372;13.610;2023-12-22T06:37:23;98474.75;;;2.17;100.00
80323;BME280;69636;52.372;13.610;2023-12-22T06:40:12;98474.38;;;2.04;100.00
80323;BME280;69636;52.372;13.610;2023-12-22T06:42:39;98485.81;;;2.03;100.00
80323;BME280;69636;52.372;13.610;2023-12-22T06:45:07;98495.31;;;2.04;100.00
80323;BME280;69636;52.372;13.610;2023-12-22T06:47:38;98500.41;;;2.14;100.00
80323;BME280;69636;52.372;13.610;2023-12-22T06:50:07;98494.41;;;2.21;100.00
80323;BME280;69636;52.372;13.610;2023-12-22T06:52:35;98504.44;;;2.26;100.00
80323;BME280;69636;52.372;13.610;2023-12-22T06:55:02;98512.59;;;2.23;100.00
80323;BME280;69636;52.372;13.610;2023-12-22T06:57:33;98504.53;;;2.16;100.00
80323;BME280;69636;52.372;13.610;2023-12-22T07:00:03;98503.09;;;2.22;100.00
80323;BME280;69636;52.372;13.610;2023-12-22T07:05:59;98503.19;;;2.12;100.00
80323;BME280;69636;52.372;13.610;2023-12-22T07:08:26;98515.72;;;2.00;100.00
80323;BME280;69636;52.372;13.610;2023-12-22T07:10:54;98517.22;;;2.03;100.00
80323;BME280;69636;52.372;13.610;2023-12-22T07:13:27;98520.34;;;2.07;100.00
80323;BME280;69636;52.372;13.610;2023-12-22T07:15:55;98504.59;;;2.24;100.00
80323;BME280;69636;52.372;13.610;2023-12-22T07:18:23;98528.66;;;2.28;100.00
80323;BME280;69636;52.372;13.610;2023-12-22T07:20:50;98559.09;;;2.29;100.00
80323;BME280;69636;52.372;13.610;2023-12-22T07:23:19;98549.63;;;2.36;100.00
80323;BME280;69636;52.372;13.610;2023-12-22T07:25:46;98561.78;;;2.45;100.00
80323;BME280;69636;52.372;13.610;2023-12-22T07:28:13;98561.94;;;2.44;100.00
80323;BME280;69636;52.372;13.610;2023-12-22T07:30:40;98576.78;;;2.35;100.00
80323;BME280;69636;52.372;13.610;2023-12-22T07:33:08;98576.44;;;2.30;100.00
80323;BME280;69636;52.372;13.610;2023-12-22T07:35:37;98595.91;;;2.27;100.00
80323;BME280;69636;52.372;13.610;2023-12-22T07:38:04;98592.59;;;2.25;100.00
80323;BME280;69636;52.372;13.610;2023-12-22T07:40:33;98584.00;;;2.33;100.00
80323;BME280;69636;52.372;13.610;2023-12-22T07:43:01;98577.28;;;2.38;100.00
80323;BME280;69636;52.372;13.610;2023-12-22T07:45:28;98572.78;;;2.49;100.00
80323;BME280;69636;52.372;13.610;2023-12-22T07:47:55;98567.09;;;2.53;100.00
80323;BME280;69636;52.372;13.610;2023-12-22T07:50:23;98564.47;;;2.53;100.00
80323;BME280;69636;52.372;13.610;2023-12-22T07:52:51;98554.97;;;2.60;100.00
80323;BME280;69636;52.372;13.610;2023-12-22T07:55:18;98581.28;;;2.77;100.00
80323;BME280;69636;52.372;13.610;2023-12-22T07:57:47;98556.72;;;2.78;100.00
80323;BME280;69636;52.372;13.610;2023-12-22T08:00:15;98554.78;;;2.80;100.00
80323;BME280;69636;52.372;13.610;2023-12-22T08:02:43;98556.56;;;2.87;100.00
80323;BME280;69636;52.372;13.610;2023-12-22T08:05:12;98554.16;;;2.86;100.00
80323;BME280;69636;52.372;13.610;2023-12-22T08:07:40;98559.72;;;2.91;100.00
80323;BME280;69636;52.372;13.610;2023-12-22T08:10:08;98578.06;;;2.91;100.00
80323;BME280;69636;52.372;13.610;2023-12-22T08:12:35;98555.63;;;2.96;100.00
80323;BME280;69636;52.372;13.610;2023-12-22T08:15:05;98568.91;;;2.95;100.00
80323;BME280;69636;52.372;13.610;2023-12-22T08:17:32;98574.97;;;2.95;100.00
80323;BME280;69636;52.372;13.610;2023-12-22T08:19:59;98570.19;;;2.91;100.00
80323;BME280;69636;52.372;13.610;2023-12-22T08:22:38;98563.97;;;2.92;100.00
80323;BME280;69636;52.372;13.610;2023-12-22T08:25:12;98566.75;;;2.90;100.00
80323;BME280;69636;52.372;13.610;2023-12-22T08:27:39;98573.13;;;2.88;100.00
80323;BME280;69636;52.372;13.610;2023-12-22T08:30:09;98591.00;;;2.92;100.00
80323;BME280;69636;52.372;13.610;2023-12-22T08:32:37;98576.56;;;2.80;100.00
80323;BME280;69636;52.372;13.610;2023-12-22T08:35:05;98618.00;;;2.85;100.00
80323;BME280;69636;52.372;13.610;2023-12-22T08:37:35;98612.78;;;2.93;100.00
80323;BME280;69636;52.372;13.610;2023-12-22T08:40:03;98611.97;;;2.92;100.00
80323;BME280;69636;52.372;13.610;2023-12-22T08:42:31;98629.19;;;2.95;100.00
80323;BME280;69636;52.372;13.610;2023-12-22T08:44:58;98634.38;;;2.87;100.00
80323;BME280;69636;52.372;13.610;2023-12-22T08:47:27;98636.97;;;2.79;100.00
80323;BME280;69636;52.372;13.610;2023-12-22T08:49:54;98628.00;;;2.89;100.00
80323;BME280;69636;52.372;13.610;2023-12-22T08:52:21;98631.19;;;3.01;100.00
80323;BME280;69636;52.372;13.610;2023-12-22T08:54:49;98629.41;;;3.10;100.00
80323;BME280;69636;52.372;13.610;2023-12-22T08:57:16;98659.19;;;3.00;100.00
80323;BME280;69636;52.372;13.610;2023-12-22T08:59:43;98642.75;;;2.90;100.00
80323;BME280;69636;52.372;13.610;2023-12-22T09:02:11;98638.69;;;2.96;100.00
80323;BME280;69636;52.372;13.610;2023-12-22T09:04:39;98636.47;;;3.09;99.77
80323;BME280;69636;52.372;13.610;2023-12-22T09:07:07;98651.69;;;3.05;99.04
80323;BME280;69636;52.372;13.610;2023-12-22T09:09:34;98641.59;;;2.93;99.39
80323;BME280;69636;52.372;13.610;2023-12-22T09:12:02;98667.16;;;2.91;100.00
80323;BME280;69636;52.372;13.610;2023-12-22T09:14:29;98670.50;;;3.01;98.81
80323;BME280;69636;52.372;13.610;2023-12-22T09:16:56;98669.88;;;3.07;99.40
80323;BME280;69636;52.372;13.610;2023-12-22T09:19:24;98660.44;;;3.22;98.11
80323;BME280;69636;52.372;13.610;2023-12-22T09:21:55;98661.09;;;3.24;97.26
80323;BME280;69636;52.372;13.610;2023-12-22T09:24:22;98676.66;;;3.76;93.55
80323;BME280;69636;52.372;13.610;2023-12-22T09:26:49;98686.50;;;3.74;93.58
80323;BME280;69636;52.372;13.610;2023-12-22T09:29:17;98680.91;;;3.61;93.44
80323;BME280;69636;52.372;13.610;2023-12-22T09:31:44;98681.88;;;3.60;94.10
80323;BME280;69636;52.372;13.610;2023-12-22T09:34:11;98672.44;;;4.07;93.08
80323;BME280;69636;52.372;13.610;2023-12-22T09:36:39;98688.53;;;4.21;90.03
80323;BME280;69636;52.372;13.610;2023-12-22T09:39:08;98694.59;;;4.05;91.12
80323;BME280;69636;52.372;13.610;2023-12-22T09:41:35;98697.81;;;3.74;88.89
80323;BME280;69636;52.372;13.610;2023-12-22T09:44:04;98693.75;;;3.88;89.93
80323;BME280;69636;52.372;13.610;2023-12-22T09:46:33;98699.38;;;4.34;87.04
80323;BME280;69636;52.372;13.610;2023-12-22T09:49:02;98711.34;;;4.69;86.26
80323;BME280;69636;52.372;13.610;2023-12-22T09:51:29;98713.50;;;4.65;86.04
80323;BME280;69636;52.372;13.610;2023-12-22T09:53:58;98697.06;;;4.55;85.33
80323;BME280;69636;52.372;13.610;2023-12-22T09:56:30;98712.50;;;4.26;84.86
80323;BME280;69636;52.372;13.610;2023-12-22T09:58:58;98710.03;;;4.24;86.10
80323;BME280;69636;52.372;13.610;2023-12-22T10:01:27;98727.47;;;4.41;86.30
80323;BME280;69636;52.372;13.610;2023-12-22T10:03:55;98724.34;;;4.62;84.04
80323;BME280;69636;52.372;13.610;2023-12-22T10:06:22;98723.34;;;4.63;84.36
80323;BME280;69636;52.372;13.610;2023-12-22T10:08:50;98731.38;;;4.70;83.82
80323;BME280;69636;52.372;13.610;2023-12-22T10:11:17;98724.97;;;4.89;83.59
80323;BME280;69636;52.372;13.610;2023-12-22T10:13:48;98730.22;;;4.72;84.18
80323;BME280;69636;52.372;13.610;2023-12-22T10:16:16;98724.47;;;4.44;85.75
80323;BME280;69636;52.372;13.610;2023-12-22T10:18:44;98725.66;;;4.58;83.56
80323;BME280;69636;52.372;13.610;2023-12-22T10:21:11;98731.53;;;4.44;85.18
80323;BME280;69636;52.372;13.610;2023-12-22T10:23:39;98737.44;;;4.22;85.32
80323;BME280;69636;52.372;13.610;2023-12-22T10:26:06;98735.97;;;4.11;86.33
80323;BME280;69636;52.372;13.610;2023-12-22T10:28:33;98736.09;;;4.01;85.83
80323;BME280;69636;52.372;13.610;2023-12-22T10:31:02;98729.22;;;4.08;86.06
80323;BME280;69636;52.372;13.610;2023-12-22T10:33:30;98737.16;;;4.41;85.68
80323;BME280;69636;52.372;13.610;2023-12-22T10:35:58;98729.72;;;5.57;79.81
80323;BME280;69636;52.372;13.610;2023-12-22T10:38:25;98727.72;;;5.59;75.54
80323;BME280;69636;52.372;13.610;2023-12-22T10:40:53;98728.69;;;5.66;76.41
80323;BME280;69636;52.372;13.610;2023-12-22T10:43:20;98739.72;;;6.92;70.64
80323;BME280;69636;52.372;13.610;2023-12-22T10:45:48;98742.28;;;6.62;70.28
80323;BME280;69636;52.372;13.610;2023-12-22T10:48:16;98750.69;;;5.73;73.96
80323;BME280;69636;52.372;13.610;2023-12-22T10:50:44;98749.69;;;5.27;76.59
80323;BME280;69636;52.372;13.610;2023-12-22T10:53:11;98754.03;;;6.29;73.34
80323;BME280;69636;52.372;13.610;2023-12-22T10:55:46;98753.19;;;7.11;68.26
80323;BME280;69636;52.372;13.610;2023-12-22T10:58:14;98742.56;;;7.64;66.00
80323;BME280;69636;52.372;13.610;2023-12-22T11:00:42;98758.75;;;6.64;69.07
80323;BME280;69636;52.372;13.610;2023-12-22T11:03:14;98768.16;;;6.36;68.88
80323;BME280;69636;52.372;13.610;2023-12-22T11:05:46;98745.69;;;6.86;68.32
80323;BME280;69636;52.372;13.610;2023-12-22T11:08:14;98743.47;;;6.06;68.82
80323;BME280;69636;52.372;13.610;2023-12-22T11:10:44;98760.03;;;5.92;71.57
80323;BME280;69636;52.372;13.610;2023-12-22T11:13:14;98734.09;;;6.03;70.12
80323;BME280;69636;52.372;13.610;2023-12-22T11:15:43;98727.91;;;6.65;69.09
80323;BME280;69636;52.372;13.610;2023-12-22T11:18:12;98738.91;;;7.06;67.93
80323;BME280;69636;52.372;13.610;2023-12-22T11:20:41;98747.69;;;6.23;69.98
80323;BME280;69636;52.372;13.610;2023-12-22T11:23:10;98746.63;;;5.07;74.51
80323;BME280;69636;52.372;13.610;2023-12-22T11:25:38;98754.47;;;5.31;75.51
80323;BME280;69636;52.372;13.610;2023-12-22T11:28:07;98713.50;;;5.37;72.85
80323;BME280;69636;52.372;13.610;2023-12-22T11:30:36;98741.47;;;5.77;72.07
80323;BME280;69636;52.372;13.610;2023-12-22T11:33:04;98730.44;;;6.12;70.11
80323;BME280;69636;52.372;13.610;2023-12-22T11:35:32;98739.28;;;6.20;71.35
80323;BME280;69636;52.372;13.610;2023-12-22T11:38:01;98744.25;;;6.60;68.85
80323;BME280;69636;52.372;13.610;2023-12-22T11:40:30;98725.41;;;6.26;67.98
80323;BME280;69636;52.372;13.610;2023-12-22T11:42:59;98735.16;;;5.94;70.45
80323;BME280;69636;52.372;13.610;2023-12-22T11:45:30;98739.28;;;6.20;70.43
80323;BME280;69636;52.372;13.610;2023-12-22T11:48:05;98728.88;;;6.49;68.63
80323;BME280;69636;52.372;13.610;2023-12-22T11:50:32;98714.91;;;7.15;67.01
80323;BME280;69636;52.372;13.610;2023-12-22T11:53:20;98732.22;;;7.47;64.03
80323;BME280;69636;52.372;13.610;2023-12-22T11:56:00;98746.13;;;6.74;65.37
80323;BME280;69636;52.372;13.610;2023-12-22T11:58:35;98744.91;;;6.39;70.24
80323;BME280;69636;52.372;13.610;2023-12-22T12:01:05;98748.19;;;5.79;73.33
80323;BME280;69636;52.372;13.610;2023-12-22T12:03:37;98737.28;;;5.52;75.42
80323;BME280;69636;52.372;13.610;2023-12-22T12:06:30;98748.91;;;5.18;76.72
80323;BME280;69636;52.372;13.610;2023-12-22T12:08:58;98738.63;;;4.84;76.74
80323;BME280;69636;52.372;13.610;2023-12-22T12:12:08;98769.97;;;4.69;78.47
80323;BME280;69636;52.372;13.610;2023-12-22T12:14:41;98767.69;;;4.74;79.23
80323;BME280;69636;52.372;13.610;2023-12-22T12:17:09;98770.97;;;4.68;78.75
80323;BME280;69636;52.372;13.610;2023-12-22T12:22:19;98768.50;;;6.78;68.50
80323;BME280;69636;52.372;13.610;2023-12-22T12:24:47;98767.75;;;5.93;72.91
80323;BME280;69636;52.372;13.610;2023-12-22T12:27:19;98753.97;;;5.36;73.86
80323;BME280;69636;52.372;13.610;2023-12-22T12:29:46;98758.00;;;5.55;75.18
80323;BME280;69636;52.372;13.610;2023-12-22T12:32:14;98765.72;;;5.56;74.72
80323;BME280;69636;52.372;13.610;2023-12-22T12:34:42;98780.13;;;5.29;76.40
80323;BME280;69636;52.372;13.610;2023-12-22T12:37:10;98759.72;;;5.39;75.68
80323;BME280;69636;52.372;13.610;2023-12-22T12:39:39;98776.09;;;5.50;76.36
80323;BME280;69636;52.372;13.610;2023-12-22T12:42:08;98751.88;;;5.07;77.18
80323;BME280;69636;52.372;13.610;2023-12-22T12:44:37;98749.25;;;5.07;77.39
80323;BME280;69636;52.372;13.610;2023-12-22T12:47:11;98744.00;;;5.07;78.59
80323;BME280;69636;52.372;13.610;2023-12-22T12:49:39;98760.63;;;4.75;78.84
80323;BME280;69636;52.372;13.610;2023-12-22T12:52:12;98757.50;;;4.55;80.20
80323;BME280;69636;52.372;13.610;2023-12-22T12:54:40;98764.09;;;4.59;81.00
80323;BME280;69636;52.372;13.610;2023-12-22T12:57:13;98767.03;;;4.56;81.00
80323;BME280;69636;52.372;13.610;2023-12-22T12:59:45;98759.13;;;4.48;81.13
80323;BME280;69636;52.372;13.610;2023-12-22T13:02:13;98762.09;;;4.37;82.30
80323;BME280;69636;52.372;13.610;2023-12-22T13:04:40;98762.94;;;4.54;83.67
80323;BME280;69636;52.372;13.610;2023-12-22T13:07:08;98757.00;;;4.43;82.78
80323;BME280;69636;52.372;13.610;2023-12-22T13:09:35;98763.06;;;4.44;81.93